Aérodrome :
LOGIN :

S'inscrire | Disclaimer

   EN    FR    IT 

 










Légende :    VFR   VFR Marginal   IFR   IFR Intensif   IFR Très Intensif
Visi : 
Plafond : 
>= 8 km
>= 3000ft
5 à 8 km
1000 à 3000 ft
1500m à 5 km
500 à 1000 ft
800 à 1500m
200 à 500 ft
< 800m
< 200 ft
Symboles :   Orages  Brouillard  Fortes neiges  Fortes précipitations  Vent > 20 kt
SIGMETs :   Divers  Orages  Givrage  Turbulence  Onde Orograph.  Cendres Volcan.






- Altitude de l'aérodrome : 614 ft
- Code IATA : CRL


EBCI - Charleroi

DERNIER METAR :
  • 240120Z 24005KT 200V260 1500 BR SCT001 BKN002 01/01 Q1024 NOSIG

METARs EXPIRÉS :
  • 240050Z 19004KT 1500 BR SCT001 BKN002 01/01 Q1025 NOSIG
  • 240020Z 20004KT 170V230 2000 BR SCT001 BKN002 01/00 Q1025 NOSIG
  • 232350Z 20004KT 150V250 1200 R24/P2000N BR SCT001 BKN002 01/01 Q1025 NOSIG
  • 232320Z 19004KT 160V220 0600 R24/P2000N FG SCT001 BKN002 02/01 Q1025 NOSIG
  • 232250Z 17004KT 0600 R24/P2000N FG SCT001 BKN002 02/01 Q1025 NOSIG

TAF TAF EBCI
Valide du 24 à 00h jusqu'au 25 à 06h UTC


232300Z 2400/2506 19003KT 0800 FG -DZ BKN002
PROB30
TEMPO 2403/2410 0500 FZFG -SG BKN001
BECMG 2410/2412 3500 BR SCT004 BKN007
TEMPO 2413/2418 6000 NSW SCT008 SCT020
PROB30
TEMPO 2420/2506 0800 FG FZFG BKN002



MET'MAP, la Météo Aéronautique d'un coup d'oeil ! - Copyright ORBIFLY Décembre 2007 - Disclaimer

ORBIFLY MET'MAP TEAM :

Programmation & Développement : Alexandra Zaïnal
Sur une idée originale de : Baudouin d'Aumeries
Assistance à la programmation : Marc-Olivier Méhu
Soutien technique & logistique : Manuel Goepfert

Contact : metmap@orbifly.com




SOURCES & CREDITS :

   NOAA